sensor_id;sensor_type;location;lat;lon;timestamp;P1;durP1;ratioP1;P2;durP2;ratioP2
34405;SDS011;20658;45.630;8.886;2023-06-14T00:00:48;38.03;;;28.30;;
34405;SDS011;20658;45.630;8.886;2023-06-14T00:03:24;31.05;;;26.88;;
34405;SDS011;20658;45.630;8.886;2023-06-14T00:05:58;51.85;;;38.00;;
34405;SDS011;20658;45.630;8.886;2023-06-14T00:08:31;34.72;;;28.63;;
34405;SDS011;20658;45.630;8.886;2023-06-14T00:11:06;40.05;;;30.98;;
34405;SDS011;20658;45.630;8.886;2023-06-14T00:13:40;45.55;;;33.30;;
34405;SDS011;20658;45.630;8.886;2023-06-14T00:16:14;42.20;;;31.98;;
34405;SDS011;20658;45.630;8.886;2023-06-14T00:18:48;43.42;;;33.40;;
34405;SDS011;20658;45.630;8.886;2023-06-14T00:21:23;48.50;;;37.28;;
34405;SDS011;20658;45.630;8.886;2023-06-14T00:23:57;45.08;;;33.72;;
34405;SDS011;20658;45.630;8.886;2023-06-14T00:26:32;46.47;;;35.75;;
34405;SDS011;20658;45.630;8.886;2023-06-14T00:29:06;46.70;;;36.15;;
34405;SDS011;20658;45.630;8.886;2023-06-14T00:31:39;49.67;;;39.28;;
34405;SDS011;20658;45.630;8.886;2023-06-14T00:34:12;47.60;;;35.70;;
34405;SDS011;20658;45.630;8.886;2023-06-14T00:36:46;53.58;;;37.20;;
34405;SDS011;20658;45.630;8.886;2023-06-14T00:39:19;46.53;;;36.47;;
34405;SDS011;20658;45.630;8.886;2023-06-14T00:41:56;48.38;;;35.58;;
34405;SDS011;20658;45.630;8.886;2023-06-14T00:44:30;42.83;;;34.47;;
34405;SDS011;20658;45.630;8.886;2023-06-14T00:47:04;50.50;;;38.72;;
34405;SDS011;20658;45.630;8.886;2023-06-14T00:49:37;53.22;;;40.63;;
34405;SDS011;20658;45.630;8.886;2023-06-14T00:52:11;57.35;;;41.30;;
34405;SDS011;20658;45.630;8.886;2023-06-14T00:54:46;56.25;;;40.05;;
34405;SDS011;20658;45.630;8.886;2023-06-14T00:57:20;52.25;;;39.38;;
34405;SDS011;20658;45.630;8.886;2023-06-14T00:59:55;47.30;;;35.00;;
34405;SDS011;20658;45.630;8.886;2023-06-14T01:02:29;49.13;;;36.75;;
34405;SDS011;20658;45.630;8.886;2023-06-14T01:05:02;45.80;;;36.13;;
34405;SDS011;20658;45.630;8.886;2023-06-14T01:07:53;49.65;;;39.80;;
34405;SDS011;20658;45.630;8.886;2023-06-14T01:10:44;41.40;;;33.45;;
34405;SDS011;20658;45.630;8.886;2023-06-14T01:13:27;34.42;;;27.20;;
34405;SDS011;20658;45.630;8.886;2023-06-14T01:16:05;27.25;;;18.70;;
34405;SDS011;20658;45.630;8.886;2023-06-14T01:18:40;16.27;;;10.45;;
34405;SDS011;20658;45.630;8.886;2023-06-14T01:21:22;12.40;;;8.10;;
34405;SDS011;20658;45.630;8.886;2023-06-14T01:23:57;17.45;;;7.13;;
34405;SDS011;20658;45.630;8.886;2023-06-14T01:26:31;14.88;;;7.55;;
34405;SDS011;20658;45.630;8.886;2023-06-14T01:29:04;10.77;;;6.60;;
34405;SDS011;20658;45.630;8.886;2023-06-14T01:31:39;12.13;;;6.53;;
34405;SDS011;20658;45.630;8.886;2023-06-14T01:34:13;9.98;;;5.93;;
34405;SDS011;20658;45.630;8.886;2023-06-14T01:36:50;8.38;;;5.25;;
34405;SDS011;20658;45.630;8.886;2023-06-14T01:39:28;10.80;;;4.90;;
34405;SDS011;20658;45.630;8.886;2023-06-14T01:42:01;8.25;;;5.05;;
34405;SDS011;20658;45.630;8.886;2023-06-14T01:44:37;12.73;;;6.45;;
34405;SDS011;20658;45.630;8.886;2023-06-14T01:47:12;10.95;;;6.85;;
34405;SDS011;20658;45.630;8.886;2023-06-14T01:49:47;12.57;;;8.25;;
34405;SDS011;20658;45.630;8.886;2023-06-14T01:52:21;11.57;;;7.40;;
34405;SDS011;20658;45.630;8.886;2023-06-14T01:54:57;12.60;;;7.57;;
34405;SDS011;20658;45.630;8.886;2023-06-14T01:57:33;12.25;;;8.55;;
34405;SDS011;20658;45.630;8.886;2023-06-14T02:00:07;12.10;;;7.78;;
34405;SDS011;20658;45.630;8.886;2023-06-14T02:02:47;13.38;;;8.75;;
34405;SDS011;20658;45.630;8.886;2023-06-14T02:05:21;15.73;;;9.43;;
34405;SDS011;20658;45.630;8.886;2023-06-14T02:07:55;18.05;;;10.35;;
34405;SDS011;20658;45.630;8.886;2023-06-14T02:10:25;18.83;;;11.30;;
34405;SDS011;20658;45.630;8.886;2023-06-14T02:12:58;17.70;;;10.27;;
34405;SDS011;20658;45.630;8.886;2023-06-14T02:15:32;18.20;;;11.20;;
34405;SDS011;20658;45.630;8.886;2023-06-14T02:18:06;14.48;;;9.77;;
34405;SDS011;20658;45.630;8.886;2023-06-14T02:20:40;13.07;;;8.77;;
34405;SDS011;20658;45.630;8.886;2023-06-14T02:23:13;19.92;;;11.52;;
34405;SDS011;20658;45.630;8.886;2023-06-14T02:25:48;17.00;;;10.85;;
34405;SDS011;20658;45.630;8.886;2023-06-14T02:28:22;14.88;;;10.55;;
34405;SDS011;20658;45.630;8.886;2023-06-14T02:30:56;17.42;;;12.57;;
34405;SDS011;20658;45.630;8.886;2023-06-14T02:33:29;21.50;;;15.20;;
34405;SDS011;20658;45.630;8.886;2023-06-14T02:36:03;23.23;;;16.08;;
34405;SDS011;20658;45.630;8.886;2023-06-14T02:38:37;27.25;;;17.75;;
34405;SDS011;20658;45.630;8.886;2023-06-14T02:41:12;26.13;;;18.83;;
34405;SDS011;20658;45.630;8.886;2023-06-14T02:43:45;27.38;;;20.58;;
34405;SDS011;20658;45.630;8.886;2023-06-14T02:46:19;30.02;;;20.38;;
34405;SDS011;20658;45.630;8.886;2023-06-14T02:48:52;32.25;;;21.55;;
34405;SDS011;20658;45.630;8.886;2023-06-14T02:51:25;29.30;;;22.42;;
34405;SDS011;20658;45.630;8.886;2023-06-14T02:53:59;34.22;;;24.23;;
34405;SDS011;20658;45.630;8.886;2023-06-14T02:56:34;38.72;;;25.48;;
34405;SDS011;20658;45.630;8.886;2023-06-14T02:59:08;37.47;;;26.20;;
34405;SDS011;20658;45.630;8.886;2023-06-14T03:01:41;33.20;;;24.25;;
34405;SDS011;20658;45.630;8.886;2023-06-14T03:04:15;37.60;;;25.98;;
34405;SDS011;20658;45.630;8.886;2023-06-14T03:06:49;34.65;;;24.27;;
34405;SDS011;20658;45.630;8.886;2023-06-14T03:09:22;43.78;;;27.17;;
34405;SDS011;20658;45.630;8.886;2023-06-14T03:11:53;39.45;;;28.08;;
34405;SDS011;20658;45.630;8.886;2023-06-14T03:14:27;36.15;;;25.40;;
34405;SDS011;20658;45.630;8.886;2023-06-14T03:17:02;38.15;;;28.52;;
34405;SDS011;20658;45.630;8.886;2023-06-14T03:19:39;36.70;;;25.83;;
34405;SDS011;20658;45.630;8.886;2023-06-14T03:22:14;33.58;;;23.23;;
34405;SDS011;20658;45.630;8.886;2023-06-14T03:24:48;32.45;;;22.50;;
34405;SDS011;20658;45.630;8.886;2023-06-14T03:27:24;31.63;;;22.20;;
34405;SDS011;20658;45.630;8.886;2023-06-14T03:30:00;27.83;;;20.42;;
34405;SDS011;20658;45.630;8.886;2023-06-14T03:32:35;29.67;;;20.73;;
34405;SDS011;20658;45.630;8.886;2023-06-14T03:35:08;29.42;;;19.63;;
34405;SDS011;20658;45.630;8.886;2023-06-14T03:37:48;30.98;;;20.80;;
34405;SDS011;20658;45.630;8.886;2023-06-14T03:40:23;29.35;;;20.70;;
34405;SDS011;20658;45.630;8.886;2023-06-14T03:43:04;26.25;;;19.88;;
34405;SDS011;20658;45.630;8.886;2023-06-14T03:45:38;25.88;;;18.80;;
34405;SDS011;20658;45.630;8.886;2023-06-14T03:48:13;25.38;;;17.80;;
34405;SDS011;20658;45.630;8.886;2023-06-14T03:50:47;30.23;;;19.40;;
34405;SDS011;20658;45.630;8.886;2023-06-14T03:53:21;25.95;;;18.23;;
34405;SDS011;20658;45.630;8.886;2023-06-14T03:55:55;23.45;;;15.82;;
34405;SDS011;20658;45.630;8.886;2023-06-14T03:58:40;21.52;;;15.90;;
34405;SDS011;20658;45.630;8.886;2023-06-14T04:01:13;26.40;;;16.98;;
34405;SDS011;20658;45.630;8.886;2023-06-14T04:03:47;27.20;;;17.88;;
34405;SDS011;20658;45.630;8.886;2023-06-14T04:06:20;24.90;;;17.05;;
34405;SDS011;20658;45.630;8.886;2023-06-14T04:08:56;25.40;;;17.92;;
34405;SDS011;20658;45.630;8.886;2023-06-14T04:11:32;24.98;;;16.58;;
34405;SDS011;20658;45.630;8.886;2023-06-14T04:14:07;21.60;;;15.85;;
34405;SDS011;20658;45.630;8.886;2023-06-14T04:16:40;22.63;;;14.27;;
34405;SDS011;20658;45.630;8.886;2023-06-14T04:19:16;20.48;;;12.82;;
34405;SDS011;20658;45.630;8.886;2023-06-14T04:21:50;17.25;;;11.98;;
34405;SDS011;20658;45.630;8.886;2023-06-14T04:24:24;22.23;;;13.07;;
34405;SDS011;20658;45.630;8.886;2023-06-14T04:27:03;15.93;;;11.75;;
34405;SDS011;20658;45.630;8.886;2023-06-14T04:29:39;17.80;;;11.57;;
34405;SDS011;20658;45.630;8.886;2023-06-14T04:32:14;17.92;;;12.65;;
34405;SDS011;20658;45.630;8.886;2023-06-14T04:34:44;21.00;;;13.10;;
34405;SDS011;20658;45.630;8.886;2023-06-14T04:37:19;19.48;;;12.88;;
34405;SDS011;20658;45.630;8.886;2023-06-14T04:39:53;23.88;;;14.32;;
34405;SDS011;20658;45.630;8.886;2023-06-14T04:42:29;19.65;;;12.82;;
34405;SDS011;20658;45.630;8.886;2023-06-14T04:45:08;18.23;;;12.18;;
34405;SDS011;20658;45.630;8.886;2023-06-14T04:47:43;19.15;;;12.38;;
34405;SDS011;20658;45.630;8.886;2023-06-14T04:50:18;23.92;;;13.75;;
34405;SDS011;20658;45.630;8.886;2023-06-14T04:52:52;21.42;;;12.77;;
34405;SDS011;20658;45.630;8.886;2023-06-14T04:55:27;21.45;;;12.85;;
34405;SDS011;20658;45.630;8.886;2023-06-14T04:58:02;17.98;;;11.73;;
34405;SDS011;20658;45.630;8.886;2023-06-14T05:00:37;17.80;;;11.98;;
34405;SDS011;20658;45.630;8.886;2023-06-14T05:03:11;20.88;;;13.20;;
34405;SDS011;20658;45.630;8.886;2023-06-14T05:05:45;17.13;;;11.63;;
34405;SDS011;20658;45.630;8.886;2023-06-14T05:08:14;18.25;;;12.23;;
34405;SDS011;20658;45.630;8.886;2023-06-14T05:10:47;19.33;;;11.68;;
34405;SDS011;20658;45.630;8.886;2023-06-14T05:13:21;20.38;;;12.05;;
34405;SDS011;20658;45.630;8.886;2023-06-14T05:15:56;15.32;;;9.57;;
34405;SDS011;20658;45.630;8.886;2023-06-14T05:18:30;17.10;;;10.35;;
34405;SDS011;20658;45.630;8.886;2023-06-14T05:21:05;21.13;;;11.40;;
34405;SDS011;20658;45.630;8.886;2023-06-14T05:23:40;17.60;;;10.80;;
34405;SDS011;20658;45.630;8.886;2023-06-14T05:26:13;18.27;;;13.15;;
34405;SDS011;20658;45.630;8.886;2023-06-14T05:28:47;17.27;;;11.45;;
34405;SDS011;20658;45.630;8.886;2023-06-14T05:31:22;17.17;;;12.32;;
34405;SDS011;20658;45.630;8.886;2023-06-14T05:33:52;17.70;;;12.93;;
34405;SDS011;20658;45.630;8.886;2023-06-14T05:36:26;19.23;;;12.30;;
34405;SDS011;20658;45.630;8.886;2023-06-14T05:38:59;19.92;;;13.68;;
34405;SDS011;20658;45.630;8.886;2023-06-14T05:41:34;21.17;;;13.50;;
34405;SDS011;20658;45.630;8.886;2023-06-14T05:44:08;21.42;;;13.05;;
34405;SDS011;20658;45.630;8.886;2023-06-14T05:46:43;19.42;;;13.50;;
34405;SDS011;20658;45.630;8.886;2023-06-14T05:49:16;21.15;;;14.40;;
34405;SDS011;20658;45.630;8.886;2023-06-14T05:51:50;19.85;;;11.88;;
34405;SDS011;20658;45.630;8.886;2023-06-14T05:54:23;17.88;;;13.07;;
34405;SDS011;20658;45.630;8.886;2023-06-14T05:56:57;20.15;;;10.75;;
34405;SDS011;20658;45.630;8.886;2023-06-14T05:59:32;17.73;;;11.52;;
34405;SDS011;20658;45.630;8.886;2023-06-14T06:02:08;17.00;;;12.35;;
34405;SDS011;20658;45.630;8.886;2023-06-14T06:04:41;15.18;;;9.95;;
34405;SDS011;20658;45.630;8.886;2023-06-14T06:07:14;16.35;;;9.73;;
34405;SDS011;20658;45.630;8.886;2023-06-14T06:09:48;15.38;;;8.88;;
34405;SDS011;20658;45.630;8.886;2023-06-14T06:12:21;13.82;;;8.35;;
34405;SDS011;20658;45.630;8.886;2023-06-14T06:14:55;12.77;;;7.20;;
34405;SDS011;20658;45.630;8.886;2023-06-14T06:17:25;14.50;;;6.38;;
34405;SDS011;20658;45.630;8.886;2023-06-14T06:19:59;10.68;;;6.45;;
34405;SDS011;20658;45.630;8.886;2023-06-14T06:22:32;11.55;;;7.63;;
34405;SDS011;20658;45.630;8.886;2023-06-14T06:25:06;10.10;;;6.47;;
34405;SDS011;20658;45.630;8.886;2023-06-14T06:27:41;11.68;;;6.63;;
34405;SDS011;20658;45.630;8.886;2023-06-14T06:30:14;12.63;;;6.95;;
34405;SDS011;20658;45.630;8.886;2023-06-14T06:32:50;14.65;;;6.63;;
34405;SDS011;20658;45.630;8.886;2023-06-14T06:35:24;9.48;;;5.82;;
34405;SDS011;20658;45.630;8.886;2023-06-14T06:37:57;11.82;;;5.80;;
34405;SDS011;20658;45.630;8.886;2023-06-14T06:40:27;14.25;;;6.63;;
34405;SDS011;20658;45.630;8.886;2023-06-14T06:43:01;10.38;;;6.07;;
34405;SDS011;20658;45.630;8.886;2023-06-14T06:45:41;10.27;;;5.72;;
34405;SDS011;20658;45.630;8.886;2023-06-14T06:48:15;7.88;;;5.13;;
34405;SDS011;20658;45.630;8.886;2023-06-14T06:50:49;11.73;;;5.70;;
34405;SDS011;20658;45.630;8.886;2023-06-14T06:53:22;8.45;;;4.50;;
34405;SDS011;20658;45.630;8.886;2023-06-14T06:55:56;6.00;;;4.88;;
34405;SDS011;20658;45.630;8.886;2023-06-14T06:58:29;6.10;;;4.57;;
34405;SDS011;20658;45.630;8.886;2023-06-14T07:01:03;6.55;;;4.70;;
34405;SDS011;20658;45.630;8.886;2023-06-14T07:03:37;6.03;;;4.72;;
34405;SDS011;20658;45.630;8.886;2023-06-14T07:06:11;10.20;;;5.35;;
34405;SDS011;20658;45.630;8.886;2023-06-14T07:08:45;15.63;;;5.32;;
34405;SDS011;20658;45.630;8.886;2023-06-14T07:11:21;10.38;;;5.57;;
34405;SDS011;20658;45.630;8.886;2023-06-14T07:13:54;7.25;;;4.78;;
34405;SDS011;20658;45.630;8.886;2023-06-14T07:16:27;8.38;;;4.75;;
34405;SDS011;20658;45.630;8.886;2023-06-14T07:19:03;12.95;;;5.57;;
34405;SDS011;20658;45.630;8.886;2023-06-14T07:21:36;9.23;;;5.28;;
34405;SDS011;20658;45.630;8.886;2023-06-14T07:24:10;7.68;;;5.00;;
34405;SDS011;20658;45.630;8.886;2023-06-14T07:26:44;12.25;;;5.40;;
34405;SDS011;20658;45.630;8.886;2023-06-14T07:29:17;9.05;;;4.90;;
34405;SDS011;20658;45.630;8.886;2023-06-14T07:31:51;7.97;;;5.53;;
34405;SDS011;20658;45.630;8.886;2023-06-14T07:34:25;9.50;;;6.03;;
34405;SDS011;20658;45.630;8.886;2023-06-14T07:36:54;8.65;;;5.03;;
34405;SDS011;20658;45.630;8.886;2023-06-14T07:39:28;14.75;;;6.10;;
34405;SDS011;20658;45.630;8.886;2023-06-14T07:42:01;8.27;;;4.85;;
34405;SDS011;20658;45.630;8.886;2023-06-14T07:44:35;9.00;;;4.97;;
34405;SDS011;20658;45.630;8.886;2023-06-14T07:47:04;8.93;;;5.20;;
34405;SDS011;20658;45.630;8.886;2023-06-14T07:49:39;11.75;;;5.18;;
34405;SDS011;20658;45.630;8.886;2023-06-14T07:52:13;9.15;;;5.65;;
34405;SDS011;20658;45.630;8.886;2023-06-14T07:54:46;8.20;;;5.18;;
34405;SDS011;20658;45.630;8.886;2023-06-14T07:57:20;10.43;;;5.10;;
34405;SDS011;20658;45.630;8.886;2023-06-14T07:59:53;9.30;;;4.78;;
34405;SDS011;20658;45.630;8.886;2023-06-14T08:02:37;10.40;;;5.95;;
34405;SDS011;20658;45.630;8.886;2023-06-14T08:05:14;13.55;;;6.15;;
34405;SDS011;20658;45.630;8.886;2023-06-14T08:07:48;13.00;;;4.88;;
34405;SDS011;20658;45.630;8.886;2023-06-14T08:10:21;10.60;;;4.40;;
34405;SDS011;20658;45.630;8.886;2023-06-14T08:12:55;10.35;;;5.03;;
34405;SDS011;20658;45.630;8.886;2023-06-14T08:15:28;10.73;;;5.65;;
34405;SDS011;20658;45.630;8.886;2023-06-14T08:18:02;14.85;;;6.38;;
34405;SDS011;20658;45.630;8.886;2023-06-14T08:20:37;7.45;;;5.15;;
34405;SDS011;20658;45.630;8.886;2023-06-14T08:23:11;8.25;;;5.20;;
34405;SDS011;20658;45.630;8.886;2023-06-14T08:25:45;13.98;;;5.95;;
34405;SDS011;20658;45.630;8.886;2023-06-14T08:28:18;9.18;;;5.55;;
34405;SDS011;20658;45.630;8.886;2023-06-14T08:30:52;15.55;;;5.95;;
34405;SDS011;20658;45.630;8.886;2023-06-14T08:33:25;9.75;;;5.88;;
34405;SDS011;20658;45.630;8.886;2023-06-14T08:36:00;19.25;;;5.63;;
34405;SDS011;20658;45.630;8.886;2023-06-14T08:38:33;8.75;;;5.55;;
34405;SDS011;20658;45.630;8.886;2023-06-14T08:41:07;12.68;;;6.90;;
34405;SDS011;20658;45.630;8.886;2023-06-14T08:43:45;12.10;;;6.95;;
34405;SDS011;20658;45.630;8.886;2023-06-14T08:46:20;11.10;;;5.90;;
34405;SDS011;20658;45.630;8.886;2023-06-14T08:48:54;10.55;;;5.57;;
34405;SDS011;20658;45.630;8.886;2023-06-14T08:51:31;11.93;;;6.47;;
34405;SDS011;20658;45.630;8.886;2023-06-14T08:54:06;11.20;;;7.45;;
34405;SDS011;20658;45.630;8.886;2023-06-14T08:56:39;10.55;;;6.30;;
34405;SDS011;20658;45.630;8.886;2023-06-14T08:59:15;10.10;;;6.50;;
34405;SDS011;20658;45.630;8.886;2023-06-14T09:01:49;11.77;;;5.60;;
34405;SDS011;20658;45.630;8.886;2023-06-14T09:04:23;11.30;;;5.80;;
34405;SDS011;20658;45.630;8.886;2023-06-14T09:07:02;9.77;;;6.03;;
34405;SDS011;20658;45.630;8.886;2023-06-14T09:09:38;9.80;;;5.85;;
34405;SDS011;20658;45.630;8.886;2023-06-14T09:12:13;11.30;;;6.35;;
34405;SDS011;20658;45.630;8.886;2023-06-14T09:14:47;8.43;;;5.78;;
34405;SDS011;20658;45.630;8.886;2023-06-14T09:17:20;8.25;;;5.43;;
34405;SDS011;20658;45.630;8.886;2023-06-14T09:19:56;12.88;;;7.20;;
34405;SDS011;20658;45.630;8.886;2023-06-14T09:22:31;14.55;;;7.60;;
34405;SDS011;20658;45.630;8.886;2023-06-14T09:25:05;15.05;;;6.85;;
34405;SDS011;20658;45.630;8.886;2023-06-14T09:27:40;9.90;;;6.10;;
34405;SDS011;20658;45.630;8.886;2023-06-14T09:30:13;10.20;;;6.43;;
34405;SDS011;20658;45.630;8.886;2023-06-14T09:32:47;9.15;;;5.90;;
34405;SDS011;20658;45.630;8.886;2023-06-14T09:35:22;10.02;;;5.10;;
34405;SDS011;20658;45.630;8.886;2023-06-14T09:37:57;9.35;;;5.35;;
34405;SDS011;20658;45.630;8.886;2023-06-14T09:40:33;9.40;;;4.10;;
34405;SDS011;20658;45.630;8.886;2023-06-14T09:43:09;10.43;;;4.90;;
34405;SDS011;20658;45.630;8.886;2023-06-14T09:45:42;7.55;;;4.20;;
34405;SDS011;20658;45.630;8.886;2023-06-14T09:48:18;15.30;;;3.83;;
34405;SDS011;20658;45.630;8.886;2023-06-14T09:50:52;6.68;;;3.72;;
34405;SDS011;20658;45.630;8.886;2023-06-14T09:53:29;7.82;;;4.50;;
34405;SDS011;20658;45.630;8.886;2023-06-14T09:56:07;7.78;;;4.28;;
34405;SDS011;20658;45.630;8.886;2023-06-14T09:58:42;9.38;;;4.05;;
34405;SDS011;20658;45.630;8.886;2023-06-14T10:01:11;10.98;;;5.38;;
34405;SDS011;20658;45.630;8.886;2023-06-14T10:03:45;6.78;;;4.40;;
34405;SDS011;20658;45.630;8.886;2023-06-14T10:06:19;9.75;;;4.65;;
34405;SDS011;20658;45.630;8.886;2023-06-14T10:08:57;5.78;;;3.92;;
34405;SDS011;20658;45.630;8.886;2023-06-14T10:11:31;13.40;;;4.60;;
34405;SDS011;20658;45.630;8.886;2023-06-14T10:14:05;7.90;;;4.20;;
34405;SDS011;20658;45.630;8.886;2023-06-14T10:16:42;8.98;;;5.70;;
34405;SDS011;20658;45.630;8.886;2023-06-14T10:19:24;9.18;;;6.05;;
34405;SDS011;20658;45.630;8.886;2023-06-14T10:22:08;7.07;;;4.47;;
34405;SDS011;20658;45.630;8.886;2023-06-14T10:24:48;7.15;;;4.32;;
34405;SDS011;20658;45.630;8.886;2023-06-14T10:27:22;7.13;;;4.65;;
34405;SDS011;20658;45.630;8.886;2023-06-14T10:30:01;8.95;;;3.70;;
34405;SDS011;20658;45.630;8.886;2023-06-14T10:35:38;9.32;;;5.07;;
34405;SDS011;20658;45.630;8.886;2023-06-14T10:38:12;5.60;;;3.50;;
34405;SDS011;20658;45.630;8.886;2023-06-14T10:40:47;5.63;;;4.20;;
34405;SDS011;20658;45.630;8.886;2023-06-14T10:43:26;5.97;;;4.05;;
34405;SDS011;20658;45.630;8.886;2023-06-14T10:48:56;7.05;;;4.40;;
34405;SDS011;20658;45.630;8.886;2023-06-14T10:51:37;4.53;;;3.42;;
34405;SDS011;20658;45.630;8.886;2023-06-14T10:54:17;7.82;;;4.47;;
34405;SDS011;20658;45.630;8.886;2023-06-14T10:56:55;5.70;;;4.18;;
34405;SDS011;20658;45.630;8.886;2023-06-14T10:59:28;8.25;;;5.30;;
34405;SDS011;20658;45.630;8.886;2023-06-14T11:02:07;10.68;;;5.50;;
34405;SDS011;20658;45.630;8.886;2023-06-14T11:05:00;7.95;;;4.43;;
34405;SDS011;20658;45.630;8.886;2023-06-14T11:07:39;10.50;;;4.80;;
34405;SDS011;20658;45.630;8.886;2023-06-14T11:10:31;7.82;;;5.30;;
34405;SDS011;20658;45.630;8.886;2023-06-14T11:13:11;11.57;;;5.38;;
34405;SDS011;20658;45.630;8.886;2023-06-14T11:15:47;6.97;;;4.25;;
34405;SDS011;20658;45.630;8.886;2023-06-14T11:18:24;9.18;;;5.07;;
34405;SDS011;20658;45.630;8.886;2023-06-14T11:20:58;9.70;;;5.85;;
34405;SDS011;20658;45.630;8.886;2023-06-14T11:23:32;9.25;;;5.20;;
34405;SDS011;20658;45.630;8.886;2023-06-14T11:26:06;9.45;;;4.88;;
34405;SDS011;20658;45.630;8.886;2023-06-14T11:28:40;9.80;;;5.47;;
34405;SDS011;20658;45.630;8.886;2023-06-14T11:31:14;8.20;;;4.28;;
34405;SDS011;20658;45.630;8.886;2023-06-14T11:33:43;9.23;;;3.90;;
34405;SDS011;20658;45.630;8.886;2023-06-14T11:36:23;9.80;;;4.57;;
34405;SDS011;20658;45.630;8.886;2023-06-14T11:39:01;10.10;;;4.97;;
34405;SDS011;20658;45.630;8.886;2023-06-14T11:41:38;6.43;;;4.32;;
34405;SDS011;20658;45.630;8.886;2023-06-14T11:44:15;7.88;;;4.38;;
34405;SDS011;20658;45.630;8.886;2023-06-14T11:46:49;9.48;;;4.65;;
34405;SDS011;20658;45.630;8.886;2023-06-14T11:49:23;7.10;;;4.63;;
34405;SDS011;20658;45.630;8.886;2023-06-14T11:51:59;6.90;;;4.68;;
34405;SDS011;20658;45.630;8.886;2023-06-14T11:54:32;7.45;;;4.13;;
34405;SDS011;20658;45.630;8.886;2023-06-14T11:57:07;5.72;;;3.65;;
34405;SDS011;20658;45.630;8.886;2023-06-14T11:59:43;8.65;;;4.43;;
34405;SDS011;20658;45.630;8.886;2023-06-14T12:02:21;10.95;;;5.05;;
34405;SDS011;20658;45.630;8.886;2023-06-14T12:05:03;6.25;;;4.93;;
34405;SDS011;20658;45.630;8.886;2023-06-14T12:07:34;9.35;;;5.18;;
34405;SDS011;20658;45.630;8.886;2023-06-14T12:10:09;7.97;;;4.35;;
34405;SDS011;20658;45.630;8.886;2023-06-14T12:12:44;8.38;;;4.72;;
34405;SDS011;20658;45.630;8.886;2023-06-14T12:15:19;8.82;;;4.53;;
34405;SDS011;20658;45.630;8.886;2023-06-14T12:17:53;6.93;;;4.43;;
34405;SDS011;20658;45.630;8.886;2023-06-14T12:20:28;11.90;;;5.38;;
34405;SDS011;20658;45.630;8.886;2023-06-14T12:23:03;11.38;;;5.35;;
34405;SDS011;20658;45.630;8.886;2023-06-14T12:25:37;7.70;;;4.85;;
34405;SDS011;20658;45.630;8.886;2023-06-14T12:28:11;9.45;;;5.93;;
34405;SDS011;20658;45.630;8.886;2023-06-14T12:30:47;11.38;;;6.32;;
34405;SDS011;20658;45.630;8.886;2023-06-14T12:33:24;9.05;;;5.20;;
34405;SDS011;20658;45.630;8.886;2023-06-14T12:35:57;12.82;;;5.22;;
34405;SDS011;20658;45.630;8.886;2023-06-14T12:38:31;8.30;;;4.05;;
34405;SDS011;20658;45.630;8.886;2023-06-14T12:41:05;9.07;;;4.72;;
34405;SDS011;20658;45.630;8.886;2023-06-14T12:43:33;9.57;;;5.72;;
34405;SDS011;20658;45.630;8.886;2023-06-14T12:46:08;9.93;;;4.78;;
34405;SDS011;20658;45.630;8.886;2023-06-14T12:48:42;9.15;;;4.05;;
34405;SDS011;20658;45.630;8.886;2023-06-14T12:51:15;8.73;;;4.55;;
34405;SDS011;20658;45.630;8.886;2023-06-14T12:53:49;8.98;;;4.20;;
34405;SDS011;20658;45.630;8.886;2023-06-14T12:56:22;9.55;;;5.25;;
34405;SDS011;20658;45.630;8.886;2023-06-14T12:58:56;8.15;;;4.32;;
34405;SDS011;20658;45.630;8.886;2023-06-14T13:01:32;9.27;;;4.32;;
34405;SDS011;20658;45.630;8.886;2023-06-14T13:04:05;9.18;;;4.80;;
34405;SDS011;20658;45.630;8.886;2023-06-14T13:06:39;7.97;;;3.90;;
34405;SDS011;20658;45.630;8.886;2023-06-14T13:09:12;9.13;;;4.45;;
34405;SDS011;20658;45.630;8.886;2023-06-14T13:11:46;12.20;;;3.92;;
34405;SDS011;20658;45.630;8.886;2023-06-14T13:14:20;11.23;;;4.30;;
34405;SDS011;20658;45.630;8.886;2023-06-14T13:16:50;11.50;;;4.88;;
34405;SDS011;20658;45.630;8.886;2023-06-14T13:19:24;7.03;;;4.15;;
34405;SDS011;20658;45.630;8.886;2023-06-14T13:21:58;14.18;;;5.75;;
34405;SDS011;20658;45.630;8.886;2023-06-14T13:24:36;9.52;;;5.70;;
34405;SDS011;20658;45.630;8.886;2023-06-14T13:27:10;11.23;;;6.00;;
34405;SDS011;20658;45.630;8.886;2023-06-14T13:29:40;8.73;;;5.40;;
34405;SDS011;20658;45.630;8.886;2023-06-14T13:32:15;7.43;;;5.18;;
34405;SDS011;20658;45.630;8.886;2023-06-14T13:34:49;13.05;;;7.10;;
34405;SDS011;20658;45.630;8.886;2023-06-14T13:37:22;11.00;;;7.32;;
34405;SDS011;20658;45.630;8.886;2023-06-14T13:39:56;9.57;;;6.88;;
34405;SDS011;20658;45.630;8.886;2023-06-14T13:42:30;10.70;;;5.50;;
34405;SDS011;20658;45.630;8.886;2023-06-14T13:44:58;10.80;;;6.43;;
34405;SDS011;20658;45.630;8.886;2023-06-14T13:47:33;12.65;;;7.38;;
34405;SDS011;20658;45.630;8.886;2023-06-14T13:50:07;10.13;;;6.80;;
34405;SDS011;20658;45.630;8.886;2023-06-14T13:52:41;11.48;;;7.35;;
34405;SDS011;20658;45.630;8.886;2023-06-14T13:55:15;12.32;;;7.63;;
34405;SDS011;20658;45.630;8.886;2023-06-14T13:57:48;12.43;;;7.57;;
34405;SDS011;20658;45.630;8.886;2023-06-14T14:00:22;13.82;;;7.97;;
34405;SDS011;20658;45.630;8.886;2023-06-14T14:02:57;11.40;;;7.45;;
34405;SDS011;20658;45.630;8.886;2023-06-14T14:05:31;11.02;;;5.70;;
34405;SDS011;20658;45.630;8.886;2023-06-14T14:08:05;12.32;;;6.68;;
34405;SDS011;20658;45.630;8.886;2023-06-14T14:10:38;15.10;;;6.82;;
34405;SDS011;20658;45.630;8.886;2023-06-14T14:13:13;10.02;;;6.63;;
34405;SDS011;20658;45.630;8.886;2023-06-14T14:15:46;12.02;;;5.82;;
34405;SDS011;20658;45.630;8.886;2023-06-14T14:18:21;11.40;;;6.05;;
34405;SDS011;20658;45.630;8.886;2023-06-14T14:20:55;11.02;;;6.15;;
34405;SDS011;20658;45.630;8.886;2023-06-14T14:23:28;11.63;;;6.10;;
34405;SDS011;20658;45.630;8.886;2023-06-14T14:26:02;7.82;;;5.45;;
34405;SDS011;20658;45.630;8.886;2023-06-14T14:28:36;12.02;;;6.93;;
34405;SDS011;20658;45.630;8.886;2023-06-14T14:31:09;9.93;;;5.75;;
34405;SDS011;20658;45.630;8.886;2023-06-14T14:33:44;9.95;;;6.82;;
34405;SDS011;20658;45.630;8.886;2023-06-14T14:36:17;10.13;;;5.90;;
34405;SDS011;20658;45.630;8.886;2023-06-14T14:38:51;11.23;;;7.00;;
34405;SDS011;20658;45.630;8.886;2023-06-14T14:41:25;15.88;;;8.68;;
34405;SDS011;20658;45.630;8.886;2023-06-14T14:44:00;11.77;;;6.63;;
34405;SDS011;20658;45.630;8.886;2023-06-14T14:46:34;14.90;;;7.85;;
34405;SDS011;20658;45.630;8.886;2023-06-14T14:49:08;11.13;;;6.28;;
34405;SDS011;20658;45.630;8.886;2023-06-14T14:51:42;10.38;;;7.22;;
34405;SDS011;20658;45.630;8.886;2023-06-14T14:54:15;12.77;;;8.52;;
34405;SDS011;20658;45.630;8.886;2023-06-14T14:56:49;12.00;;;7.20;;
34405;SDS011;20658;45.630;8.886;2023-06-14T14:59:22;12.27;;;6.85;;
34405;SDS011;20658;45.630;8.886;2023-06-14T15:01:56;18.38;;;11.30;;
34405;SDS011;20658;45.630;8.886;2023-06-14T15:04:30;15.82;;;9.30;;
34405;SDS011;20658;45.630;8.886;2023-06-14T15:07:04;12.55;;;7.03;;
34405;SDS011;20658;45.630;8.886;2023-06-14T15:09:38;11.90;;;6.07;;
34405;SDS011;20658;45.630;8.886;2023-06-14T15:12:11;19.88;;;7.70;;
34405;SDS011;20658;45.630;8.886;2023-06-14T15:14:45;12.50;;;6.82;;
34405;SDS011;20658;45.630;8.886;2023-06-14T15:17:18;9.43;;;6.40;;
34405;SDS011;20658;45.630;8.886;2023-06-14T15:19:54;10.95;;;6.53;;
34405;SDS011;20658;45.630;8.886;2023-06-14T15:22:28;9.98;;;6.60;;